sensor_id;sensor_type;location;lat;lon;timestamp;temperature;humidity
2391;DHT22;22957;50.824;4.360;2023-01-28T08:39:57;3.70;99.90
2391;DHT22;22957;50.824;4.360;2023-01-28T08:42:23;3.40;99.90
2391;DHT22;22957;50.824;4.360;2023-01-28T08:44:49;3.90;99.90
2391;DHT22;22957;50.824;4.360;2023-01-28T08:47:15;4.10;99.90
2391;DHT22;22957;50.824;4.360;2023-01-28T08:49:40;3.90;99.90
2391;DHT22;22957;50.824;4.360;2023-01-28T08:52:07;4.40;99.90
2391;DHT22;22957;50.824;4.360;2023-01-28T08:55:24;4.30;99.90
2391;DHT22;22957;50.824;4.360;2023-01-28T08:57:50;4.50;99.90
2391;DHT22;22957;50.824;4.360;2023-01-28T09:00:17;4.30;99.90
2391;DHT22;22957;50.824;4.360;2023-01-28T09:02:42;4.50;99.90
2391;DHT22;22957;50.824;4.360;2023-01-28T09:05:08;5.00;99.90
2391;DHT22;22957;50.824;4.360;2023-01-28T09:07:35;4.30;99.90
2391;DHT22;22957;50.824;4.360;2023-01-28T09:10:03;4.00;99.90
2391;DHT22;22957;50.824;4.360;2023-01-28T09:12:30;3.90;99.90
2391;DHT22;22957;50.824;4.360;2023-01-28T09:14:55;4.30;99.90
2391;DHT22;22957;50.824;4.360;2023-01-28T09:17:21;3.30;99.90
2391;DHT22;22957;50.824;4.360;2023-01-28T09:19:47;3.30;99.90
2391;DHT22;22957;50.824;4.360;2023-01-28T09:22:13;3.30;99.90
2391;DHT22;22957;50.824;4.360;2023-01-28T09:24:39;3.70;99.90
2391;DHT22;22957;50.824;4.360;2023-01-28T09:27:05;3.90;99.90
2391;DHT22;22957;50.824;4.360;2023-01-28T09:29:34;4.20;99.90
2391;DHT22;22957;50.824;4.360;2023-01-28T09:32:00;4.90;99.90
2391;DHT22;22957;50.824;4.360;2023-01-28T09:34:26;5.90;99.90
2391;DHT22;22957;50.824;4.360;2023-01-28T09:36:52;5.80;99.90
2391;DHT22;22957;50.824;4.360;2023-01-28T09:39:17;6.10;99.90
2391;DHT22;22957;50.824;4.360;2023-01-28T09:47:39;4.80;99.90
2391;DHT22;22957;50.824;4.360;2023-01-28T09:50:13;4.80;99.90
2391;DHT22;22957;50.824;4.360;2023-01-28T09:52:40;4.80;99.90
2391;DHT22;22957;50.824;4.360;2023-01-28T09:55:29;4.10;99.90
2391;DHT22;22957;50.824;4.360;2023-01-28T09:57:55;4.70;99.90
2391;DHT22;22957;50.824;4.360;2023-01-28T10:00:28;4.00;99.90
2391;DHT22;22957;50.824;4.360;2023-01-28T10:16:36;6.50;99.90
2391;DHT22;22957;50.824;4.360;2023-01-28T10:24:40;6.00;99.90
2391;DHT22;22957;50.824;4.360;2023-01-28T10:27:16;6.80;99.90
2391;DHT22;22957;50.824;4.360;2023-01-28T10:29:45;6.50;99.90
2391;DHT22;22957;50.824;4.360;2023-01-28T10:32:21;6.40;99.90
2391;DHT22;22957;50.824;4.360;2023-01-28T10:34:48;5.90;99.90
2391;DHT22;22957;50.824;4.360;2023-01-28T10:37:15;5.80;99.90
2391;DHT22;22957;50.824;4.360;2023-01-28T10:39:41;5.70;99.90
2391;DHT22;22957;50.824;4.360;2023-01-28T10:42:25;4.60;99.90
2391;DHT22;22957;50.824;4.360;2023-01-28T10:44:55;4.50;99.90
2391;DHT22;22957;50.824;4.360;2023-01-28T10:47:34;4.50;99.90
2391;DHT22;22957;50.824;4.360;2023-01-28T10:50:04;4.10;99.90
2391;DHT22;22957;50.824;4.360;2023-01-28T10:52:30;3.90;99.90
2391;DHT22;22957;50.824;4.360;2023-01-28T10:55:03;4.30;99.90
2391;DHT22;22957;50.824;4.360;2023-01-28T10:57:32;3.20;99.90
2391;DHT22;22957;50.824;4.360;2023-01-28T11:00:10;3.10;99.90
2391;DHT22;22957;50.824;4.360;2023-01-28T11:02:36;3.60;99.90
2391;DHT22;22957;50.824;4.360;2023-01-28T11:07:42;3.80;99.90
2391;DHT22;22957;50.824;4.360;2023-01-28T11:10:31;3.30;99.90
2391;DHT22;22957;50.824;4.360;2023-01-28T11:12:58;4.30;99.90
2391;DHT22;22957;50.824;4.360;2023-01-28T11:15:27;5.10;99.90
2391;DHT22;22957;50.824;4.360;2023-01-28T11:17:59;5.80;99.90
2391;DHT22;22957;50.824;4.360;2023-01-28T11:20:26;5.00;99.90
2391;DHT22;22957;50.824;4.360;2023-01-28T11:22:53;5.20;99.90
2391;DHT22;22957;50.824;4.360;2023-01-28T11:25:29;5.30;99.90
2391;DHT22;22957;50.824;4.360;2023-01-28T11:27:57;6.10;99.90
2391;DHT22;22957;50.824;4.360;2023-01-28T11:30:31;6.20;99.90
2391;DHT22;22957;50.824;4.360;2023-01-28T11:33:15;6.20;99.90
2391;DHT22;22957;50.824;4.360;2023-01-28T11:35:55;4.70;99.90
2391;DHT22;22957;50.824;4.360;2023-01-28T11:38:24;3.80;99.90
2391;DHT22;22957;50.824;4.360;2023-01-28T11:40:51;5.20;99.90
2391;DHT22;22957;50.824;4.360;2023-01-28T11:43:21;5.40;99.90
2391;DHT22;22957;50.824;4.360;2023-01-28T11:49:05;3.90;99.90
2391;DHT22;22957;50.824;4.360;2023-01-28T11:51:35;4.50;99.90
2391;DHT22;22957;50.824;4.360;2023-01-28T11:54:17;3.30;99.90
2391;DHT22;22957;50.824;4.360;2023-01-28T11:59:50;3.70;99.90
2391;DHT22;22957;50.824;4.360;2023-01-28T12:02:58;3.50;99.90
2391;DHT22;22957;50.824;4.360;2023-01-28T12:05:37;3.40;99.90
2391;DHT22;22957;50.824;4.360;2023-01-28T12:17:15;4.60;99.90
2391;DHT22;22957;50.824;4.360;2023-01-28T13:51:30;6.00;99.90
2391;DHT22;22957;50.824;4.360;2023-01-28T13:54:11;5.40;99.90
2391;DHT22;22957;50.824;4.360;2023-01-28T14:16:40;6.40;99.90
2391;DHT22;22957;50.824;4.360;2023-01-28T14:19:19;4.80;99.90
2391;DHT22;22957;50.824;4.360;2023-01-28T14:21:46;4.70;99.90
2391;DHT22;22957;50.824;4.360;2023-01-28T14:24:16;3.80;99.90
2391;DHT22;22957;50.824;4.360;2023-01-28T14:26:57;3.60;99.90
2391;DHT22;22957;50.824;4.360;2023-01-28T14:32:25;3.70;99.90
2391;DHT22;22957;50.824;4.360;2023-01-28T14:34:54;3.50;99.90
2391;DHT22;22957;50.824;4.360;2023-01-28T14:37:23;4.40;99.90
2391;DHT22;22957;50.824;4.360;2023-01-28T14:39:57;4.70;99.90
2391;DHT22;22957;50.824;4.360;2023-01-28T14:42:27;4.70;99.90
2391;DHT22;22957;50.824;4.360;2023-01-28T14:58:42;4.20;99.90
2391;DHT22;22957;50.824;4.360;2023-01-28T15:01:22;3.70;99.90
2391;DHT22;22957;50.824;4.360;2023-01-28T15:03:48;4.00;99.90
2391;DHT22;22957;50.824;4.360;2023-01-28T15:06:17;4.00;99.90
2391;DHT22;22957;50.824;4.360;2023-01-28T15:08:45;3.80;99.90
2391;DHT22;22957;50.824;4.360;2023-01-28T15:11:19;3.70;99.90
2391;DHT22;22957;50.824;4.360;2023-01-28T15:13:48;4.10;99.90
2391;DHT22;22957;50.824;4.360;2023-01-28T15:16:24;4.20;99.90
2391;DHT22;22957;50.824;4.360;2023-01-28T15:18:53;4.80;99.90
2391;DHT22;22957;50.824;4.360;2023-01-28T15:21:20;4.20;99.90
2391;DHT22;22957;50.824;4.360;2023-01-28T15:23:52;4.20;99.90
2391;DHT22;22957;50.824;4.360;2023-01-28T15:26:25;5.40;99.90
2391;DHT22;22957;50.824;4.360;2023-01-28T15:28:52;5.90;99.90
2391;DHT22;22957;50.824;4.360;2023-01-28T15:34:16;6.10;99.90
2391;DHT22;22957;50.824;4.360;2023-01-28T15:36:41;5.70;99.90
2391;DHT22;22957;50.824;4.360;2023-01-28T15:39:15;5.30;99.90
2391;DHT22;22957;50.824;4.360;2023-01-28T15:41:45;5.20;99.90
2391;DHT22;22957;50.824;4.360;2023-01-28T15:46:58;5.60;99.90
2391;DHT22;22957;50.824;4.360;2023-01-28T15:49:36;6.60;99.90
2391;DHT22;22957;50.824;4.360;2023-01-28T15:52:02;5.20;99.90
2391;DHT22;22957;50.824;4.360;2023-01-28T15:54:29;5.20;99.90
2391;DHT22;22957;50.824;4.360;2023-01-28T15:56:55;5.00;99.90
2391;DHT22;22957;50.824;4.360;2023-01-28T15:59:25;4.10;99.90
2391;DHT22;22957;50.824;4.360;2023-01-28T16:04:40;3.90;99.90
2391;DHT22;22957;50.824;4.360;2023-01-28T16:07:06;4.30;99.90
2391;DHT22;22957;50.824;4.360;2023-01-28T16:09:33;4.70;99.90
2391;DHT22;22957;50.824;4.360;2023-01-28T16:12:06;5.30;99.90
2391;DHT22;22957;50.824;4.360;2023-01-28T16:17:00;6.10;99.90
2391;DHT22;22957;50.824;4.360;2023-01-28T16:19:34;6.30;99.90
2391;DHT22;22957;50.824;4.360;2023-01-28T16:22:01;5.70;99.90
2391;DHT22;22957;50.824;4.360;2023-01-28T16:24:30;5.90;99.90
2391;DHT22;22957;50.824;4.360;2023-01-28T16:29:23;6.40;99.90
2391;DHT22;22957;50.824;4.360;2023-01-28T16:31:49;6.00;99.90
2391;DHT22;22957;50.824;4.360;2023-01-28T16:34:15;6.20;99.90
2391;DHT22;22957;50.824;4.360;2023-01-28T16:36:40;6.10;99.90
2391;DHT22;22957;50.824;4.360;2023-01-28T16:39:07;6.40;99.90
2391;DHT22;22957;50.824;4.360;2023-01-28T16:41:38;6.00;99.90
2391;DHT22;22957;50.824;4.360;2023-01-28T16:44:04;6.60;99.90
2391;DHT22;22957;50.824;4.360;2023-01-28T16:46:31;5.50;99.90
2391;DHT22;22957;50.824;4.360;2023-01-28T16:49:00;5.80;99.90
2391;DHT22;22957;50.824;4.360;2023-01-28T16:51:26;6.70;99.90
2391;DHT22;22957;50.824;4.360;2023-01-28T16:53:52;6.80;99.90
2391;DHT22;22957;50.824;4.360;2023-01-28T16:56:21;7.20;99.90
2391;DHT22;22957;50.824;4.360;2023-01-28T16:58:47;6.10;99.90
2391;DHT22;22957;50.824;4.360;2023-01-28T17:01:13;5.00;99.90
2391;DHT22;22957;50.824;4.360;2023-01-28T17:03:39;5.80;99.90
2391;DHT22;22957;50.824;4.360;2023-01-28T17:06:06;4.60;99.90
2391;DHT22;22957;50.824;4.360;2023-01-28T17:08:32;4.80;99.90
2391;DHT22;22957;50.824;4.360;2023-01-28T17:10:58;6.10;99.90
2391;DHT22;22957;50.824;4.360;2023-01-28T17:13:24;5.30;99.90
2391;DHT22;22957;50.824;4.360;2023-01-28T17:15:51;4.40;99.90
2391;DHT22;22957;50.824;4.360;2023-01-28T17:18:17;4.50;99.90
2391;DHT22;22957;50.824;4.360;2023-01-28T17:20:43;5.10;99.90
2391;DHT22;22957;50.824;4.360;2023-01-28T17:23:14;5.70;99.90
2391;DHT22;22957;50.824;4.360;2023-01-28T17:25:41;4.30;99.90
2391;DHT22;22957;50.824;4.360;2023-01-28T17:28:08;3.90;99.90
2391;DHT22;22957;50.824;4.360;2023-01-28T17:30:33;4.40;99.90
2391;DHT22;22957;50.824;4.360;2023-01-28T17:32:59;5.00;99.90
2391;DHT22;22957;50.824;4.360;2023-01-28T17:35:28;5.50;99.90
2391;DHT22;22957;50.824;4.360;2023-01-28T17:37:55;5.50;99.90
2391;DHT22;22957;50.824;4.360;2023-01-28T17:40:21;6.10;99.90
2391;DHT22;22957;50.824;4.360;2023-01-28T17:42:47;6.40;99.90
2391;DHT22;22957;50.824;4.360;2023-01-28T17:45:13;6.40;99.90
2391;DHT22;22957;50.824;4.360;2023-01-28T17:47:39;5.80;99.90
2391;DHT22;22957;50.824;4.360;2023-01-28T17:50:05;6.10;99.90
2391;DHT22;22957;50.824;4.360;2023-01-28T17:52:32;5.40;99.90
2391;DHT22;22957;50.824;4.360;2023-01-28T17:54:57;5.60;99.90
2391;DHT22;22957;50.824;4.360;2023-01-28T17:57:23;5.90;99.90
2391;DHT22;22957;50.824;4.360;2023-01-28T17:59:49;5.50;99.90
2391;DHT22;22957;50.824;4.360;2023-01-28T18:02:15;5.30;99.90
2391;DHT22;22957;50.824;4.360;2023-01-28T18:04:41;5.30;99.90
2391;DHT22;22957;50.824;4.360;2023-01-28T18:07:08;5.50;99.90
2391;DHT22;22957;50.824;4.360;2023-01-28T18:09:41;6.10;99.90
2391;DHT22;22957;50.824;4.360;2023-01-28T18:12:09;5.80;99.90
2391;DHT22;22957;50.824;4.360;2023-01-28T18:14:36;5.20;99.90
2391;DHT22;22957;50.824;4.360;2023-01-28T18:17:02;4.70;99.90
2391;DHT22;22957;50.824;4.360;2023-01-28T18:19:28;5.30;99.90
2391;DHT22;22957;50.824;4.360;2023-01-28T18:21:53;5.10;99.90
2391;DHT22;22957;50.824;4.360;2023-01-28T18:24:21;5.30;99.90
2391;DHT22;22957;50.824;4.360;2023-01-28T18:26:49;5.50;99.90
2391;DHT22;22957;50.824;4.360;2023-01-28T18:29:15;5.30;99.90
2391;DHT22;22957;50.824;4.360;2023-01-28T18:31:47;5.30;99.90
2391;DHT22;22957;50.824;4.360;2023-01-28T18:34:14;5.30;99.90
2391;DHT22;22957;50.824;4.360;2023-01-28T18:36:39;4.20;99.90
2391;DHT22;22957;50.824;4.360;2023-01-28T18:39:06;4.50;99.90
2391;DHT22;22957;50.824;4.360;2023-01-28T18:41:31;4.50;99.90
2391;DHT22;22957;50.824;4.360;2023-01-28T18:43:57;4.00;99.90
2391;DHT22;22957;50.824;4.360;2023-01-28T18:46:24;4.10;99.90
2391;DHT22;22957;50.824;4.360;2023-01-28T18:48:50;3.80;99.90
2391;DHT22;22957;50.824;4.360;2023-01-28T18:51:15;3.50;99.90
2391;DHT22;22957;50.824;4.360;2023-01-28T18:53:41;3.90;99.90
2391;DHT22;22957;50.824;4.360;2023-01-28T18:56:07;4.10;99.90
2391;DHT22;22957;50.824;4.360;2023-01-28T18:58:33;4.90;99.90
2391;DHT22;22957;50.824;4.360;2023-01-28T19:00:59;5.10;99.90
2391;DHT22;22957;50.824;4.360;2023-01-28T19:03:25;4.50;99.90
2391;DHT22;22957;50.824;4.360;2023-01-28T19:05:51;4.20;99.90
2391;DHT22;22957;50.824;4.360;2023-01-28T19:08:17;4.20;99.90
2391;DHT22;22957;50.824;4.360;2023-01-28T19:10:43;4.60;99.90
2391;DHT22;22957;50.824;4.360;2023-01-28T19:13:08;4.80;99.90
2391;DHT22;22957;50.824;4.360;2023-01-28T19:15:34;5.20;99.90
2391;DHT22;22957;50.824;4.360;2023-01-28T19:18:00;4.70;99.90
2391;DHT22;22957;50.824;4.360;2023-01-28T19:20:28;4.90;99.90
2391;DHT22;22957;50.824;4.360;2023-01-28T19:22:53;4.80;99.90
2391;DHT22;22957;50.824;4.360;2023-01-28T19:25:19;5.30;99.90
2391;DHT22;22957;50.824;4.360;2023-01-28T19:27:45;6.30;99.90
2391;DHT22;22957;50.824;4.360;2023-01-28T19:30:11;6.30;99.90
2391;DHT22;22957;50.824;4.360;2023-01-28T19:32:36;5.60;99.90
2391;DHT22;22957;50.824;4.360;2023-01-28T19:35:02;5.70;99.90
2391;DHT22;22957;50.824;4.360;2023-01-28T19:37:28;6.20;99.90
2391;DHT22;22957;50.824;4.360;2023-01-28T19:39:54;6.30;99.90
2391;DHT22;22957;50.824;4.360;2023-01-28T19:42:20;6.00;99.90
2391;DHT22;22957;50.824;4.360;2023-01-28T19:44:46;5.20;99.90
2391;DHT22;22957;50.824;4.360;2023-01-28T19:47:11;5.40;99.90
2391;DHT22;22957;50.824;4.360;2023-01-28T19:49:37;5.70;99.90
2391;DHT22;22957;50.824;4.360;2023-01-28T19:52:03;5.50;99.90
2391;DHT22;22957;50.824;4.360;2023-01-28T19:54:33;5.90;99.90
2391;DHT22;22957;50.824;4.360;2023-01-28T19:56:59;5.30;99.90
2391;DHT22;22957;50.824;4.360;2023-01-28T19:59:25;4.90;99.90
2391;DHT22;22957;50.824;4.360;2023-01-28T20:01:51;4.70;99.90
2391;DHT22;22957;50.824;4.360;2023-01-28T20:04:16;4.20;99.90
2391;DHT22;22957;50.824;4.360;2023-01-28T20:06:42;4.40;99.90
2391;DHT22;22957;50.824;4.360;2023-01-28T20:09:14;4.10;99.90
2391;DHT22;22957;50.824;4.360;2023-01-28T20:11:41;4.40;99.90
2391;DHT22;22957;50.824;4.360;2023-01-28T20:14:06;4.30;99.90
2391;DHT22;22957;50.824;4.360;2023-01-28T20:16:33;4.50;99.90
2391;DHT22;22957;50.824;4.360;2023-01-28T20:19:07;5.10;99.90
2391;DHT22;22957;50.824;4.360;2023-01-28T20:21:37;4.60;99.90
2391;DHT22;22957;50.824;4.360;2023-01-28T20:24:03;4.30;99.90
2391;DHT22;22957;50.824;4.360;2023-01-28T20:26:31;4.20;99.90
2391;DHT22;22957;50.824;4.360;2023-01-28T20:29:11;4.00;99.90
2391;DHT22;22957;50.824;4.360;2023-01-28T20:31:39;3.70;99.90
2391;DHT22;22957;50.824;4.360;2023-01-28T20:34:05;3.70;99.90
2391;DHT22;22957;50.824;4.360;2023-01-28T20:36:34;4.10;99.90
2391;DHT22;22957;50.824;4.360;2023-01-28T20:39:00;4.10;99.90
2391;DHT22;22957;50.824;4.360;2023-01-28T20:41:26;4.50;99.90
2391;DHT22;22957;50.824;4.360;2023-01-28T21:17:54;4.60;99.90
2391;DHT22;22957;50.824;4.360;2023-01-28T21:20:19;4.60;99.90
2391;DHT22;22957;50.824;4.360;2023-01-28T21:22:54;5.00;99.90
2391;DHT22;22957;50.824;4.360;2023-01-28T21:25:21;4.90;99.90
2391;DHT22;22957;50.824;4.360;2023-01-28T21:27:47;4.90;99.90
2391;DHT22;22957;50.824;4.360;2023-01-28T21:30:13;5.20;99.90
2391;DHT22;22957;50.824;4.360;2023-01-28T21:32:39;5.30;99.90
2391;DHT22;22957;50.824;4.360;2023-01-28T21:35:05;5.10;99.90
2391;DHT22;22957;50.824;4.360;2023-01-28T21:37:31;5.20;99.90
2391;DHT22;22957;50.824;4.360;2023-01-28T21:39:57;4.80;99.90
2391;DHT22;22957;50.824;4.360;2023-01-28T21:42:23;5.00;99.90
2391;DHT22;22957;50.824;4.360;2023-01-28T21:44:49;5.10;99.90
2391;DHT22;22957;50.824;4.360;2023-01-28T21:47:15;5.10;99.90
2391;DHT22;22957;50.824;4.360;2023-01-28T21:49:41;5.10;99.90
2391;DHT22;22957;50.824;4.360;2023-01-28T21:52:07;5.10;99.90
2391;DHT22;22957;50.824;4.360;2023-01-28T21:54:33;5.10;99.90
2391;DHT22;22957;50.824;4.360;2023-01-28T21:57:00;5.20;99.90
2391;DHT22;22957;50.824;4.360;2023-01-28T21:59:26;5.10;99.90
2391;DHT22;22957;50.824;4.360;2023-01-28T22:01:59;5.20;99.90
2391;DHT22;22957;50.824;4.360;2023-01-28T22:04:29;5.30;99.90
2391;DHT22;22957;50.824;4.360;2023-01-28T22:06:55;5.30;99.90
2391;DHT22;22957;50.824;4.360;2023-01-28T22:09:22;5.10;99.90
2391;DHT22;22957;50.824;4.360;2023-01-28T22:11:47;5.30;99.90
2391;DHT22;22957;50.824;4.360;2023-01-28T22:14:14;5.20;99.90
2391;DHT22;22957;50.824;4.360;2023-01-28T22:16:39;4.90;99.90
2391;DHT22;22957;50.824;4.360;2023-01-28T22:19:05;5.30;99.90
2391;DHT22;22957;50.824;4.360;2023-01-28T22:21:31;5.60;99.90
2391;DHT22;22957;50.824;4.360;2023-01-28T22:23:58;6.40;99.90
2391;DHT22;22957;50.824;4.360;2023-01-28T22:26:23;6.40;99.90
2391;DHT22;22957;50.824;4.360;2023-01-28T22:28:49;6.30;99.90
2391;DHT22;22957;50.824;4.360;2023-01-28T22:31:15;6.40;99.90
2391;DHT22;22957;50.824;4.360;2023-01-28T22:33:41;6.90;99.90
2391;DHT22;22957;50.824;4.360;2023-01-28T22:36:11;6.90;99.90
2391;DHT22;22957;50.824;4.360;2023-01-28T22:38:37;6.70;99.90
2391;DHT22;22957;50.824;4.360;2023-01-28T22:41:07;6.50;99.90
2391;DHT22;22957;50.824;4.360;2023-01-28T22:43:33;6.50;99.90
2391;DHT22;22957;50.824;4.360;2023-01-28T22:46:00;6.40;99.90
2391;DHT22;22957;50.824;4.360;2023-01-28T22:48:27;6.70;99.90
2391;DHT22;22957;50.824;4.360;2023-01-28T22:50:53;6.00;99.90
2391;DHT22;22957;50.824;4.360;2023-01-28T22:53:19;5.90;99.90
2391;DHT22;22957;50.824;4.360;2023-01-28T22:55:49;6.10;99.90
2391;DHT22;22957;50.824;4.360;2023-01-28T22:58:15;5.80;99.90
2391;DHT22;22957;50.824;4.360;2023-01-28T23:00:40;5.60;99.90
2391;DHT22;22957;50.824;4.360;2023-01-28T23:03:06;5.10;99.90
2391;DHT22;22957;50.824;4.360;2023-01-28T23:05:34;5.10;99.90
2391;DHT22;22957;50.824;4.360;2023-01-28T23:08:00;4.90;99.90
2391;DHT22;22957;50.824;4.360;2023-01-28T23:10:45;5.10;99.90
2391;DHT22;22957;50.824;4.360;2023-01-28T23:13:16;4.80;99.90
2391;DHT22;22957;50.824;4.360;2023-01-28T23:15:46;4.50;99.90
2391;DHT22;22957;50.824;4.360;2023-01-28T23:18:31;4.50;99.90
2391;DHT22;22957;50.824;4.360;2023-01-28T23:21:16;4.70;99.90
2391;DHT22;22957;50.824;4.360;2023-01-28T23:24:02;4.50;99.90
2391;DHT22;22957;50.824;4.360;2023-01-28T23:26:49;4.90;99.90
2391;DHT22;22957;50.824;4.360;2023-01-28T23:29:20;4.40;99.90
2391;DHT22;22957;50.824;4.360;2023-01-28T23:31:51;4.50;99.90
2391;DHT22;22957;50.824;4.360;2023-01-28T23:34:18;4.00;99.90
2391;DHT22;22957;50.824;4.360;2023-01-28T23:36:44;3.70;99.90
2391;DHT22;22957;50.824;4.360;2023-01-28T23:39:10;3.90;99.90
2391;DHT22;22957;50.824;4.360;2023-01-28T23:41:36;4.00;99.90
2391;DHT22;22957;50.824;4.360;2023-01-28T23:44:02;3.70;99.90
2391;DHT22;22957;50.824;4.360;2023-01-28T23:46:29;3.50;99.90
2391;DHT22;22957;50.824;4.360;2023-01-28T23:48:55;3.70;99.90
2391;DHT22;22957;50.824;4.360;2023-01-28T23:51:21;3.90;99.90
2391;DHT22;22957;50.824;4.360;2023-01-28T23:53:48;3.90;99.90
2391;DHT22;22957;50.824;4.360;2023-01-28T23:56:16;4.10;99.90
2391;DHT22;22957;50.824;4.360;2023-01-28T23:58:42;4.20;99.90
